createdAt,value
2018-04-10T00:01:19.703Z,18.47
2018-04-10T00:04:22.851Z,15.13
2018-04-10T00:07:26.044Z,15.13
2018-04-10T00:10:30.052Z,17.07
2018-04-10T00:13:33.260Z,17.07
2018-04-10T00:16:36.437Z,17.33
2018-04-10T00:19:39.644Z,17.27
2018-04-10T00:22:42.805Z,16.33
2018-04-10T00:25:46.749Z,17.33
2018-04-10T00:28:49.931Z,17.43
2018-04-10T00:31:53.868Z,18.83
2018-04-10T00:34:57.043Z,17.83
2018-04-10T00:38:00.225Z,16.47
2018-04-10T00:41:03.894Z,16.50
2018-04-10T00:44:07.067Z,17.20
2018-04-10T00:47:10.223Z,17.20
2018-04-10T00:50:13.426Z,17.37
2018-04-10T00:53:28.580Z,16.93
2018-04-10T00:56:32.503Z,16.70
2018-04-10T00:59:35.703Z,16.33
2018-04-10T01:02:38.899Z,16.20
2018-04-10T01:05:42.088Z,16.43
2018-04-10T01:08:45.317Z,15.15
2018-04-10T01:11:48.457Z,16.87
2018-04-10T01:14:51.662Z,15.23
2018-04-10T01:17:54.875Z,17.48
2018-04-10T01:20:58.092Z,14.87
2018-04-10T01:24:01.271Z,14.63
2018-04-10T01:27:04.456Z,16.80
2018-04-10T01:30:07.657Z,15.73
2018-04-10T01:33:11.136Z,16.48
2018-04-10T01:36:15.078Z,15.13
2018-04-10T01:39:18.656Z,16.20
2018-04-10T01:42:22.594Z,15.68
2018-04-10T01:45:25.802Z,15.40
2018-04-10T01:48:28.955Z,15.45
2018-04-10T01:51:32.182Z,15.10
2018-04-10T01:54:35.353Z,15.13
2018-04-10T01:57:38.556Z,16.33
2018-04-10T02:00:41.721Z,18.80
2018-04-10T02:03:46.858Z,18.62
2018-04-10T02:06:50.034Z,17.02
2018-04-10T02:10:11.712Z,15.10
2018-04-10T02:13:14.888Z,17.00
2018-04-10T02:16:18.427Z,16.00
2018-04-10T02:19:21.624Z,16.52
2018-04-10T02:22:24.784Z,17.55
2018-04-10T02:25:33.747Z,17.52
2018-04-10T02:28:42.730Z,15.57
2018-04-10T02:31:46.680Z,16.70
2018-04-10T02:34:55.409Z,15.75
2018-04-10T02:37:58.585Z,16.10
2018-04-10T02:41:07.545Z,15.50
2018-04-10T02:44:10.730Z,16.05
2018-04-10T02:47:13.895Z,17.52
2018-04-10T02:50:17.062Z,18.58
2018-04-10T02:53:20.268Z,18.30
2018-04-10T02:56:23.439Z,18.67
2018-04-10T02:59:27.812Z,19.35
2018-04-10T03:02:31.021Z,18.20
2018-04-10T03:05:34.538Z,17.67
2018-04-10T03:08:37.721Z,18.95
2018-04-10T03:11:40.886Z,16.85
2018-04-10T03:14:44.473Z,18.00
2018-04-10T03:17:47.711Z,16.58
2018-04-10T03:20:51.828Z,19.30
2018-04-10T03:23:55.015Z,17.02
2018-04-10T03:26:58.182Z,17.83
2018-04-10T03:30:02.637Z,18.40
2018-04-10T03:33:05.791Z,18.52
2018-04-10T03:36:08.970Z,17.20
2018-04-10T03:39:12.913Z,17.60
2018-04-10T03:42:16.131Z,17.83
2018-04-10T03:45:19.301Z,20.40
2018-04-10T03:48:22.475Z,17.17
2018-04-10T03:51:26.415Z,15.73
2018-04-10T03:54:29.631Z,14.38
2018-04-10T03:57:32.772Z,15.23
2018-04-10T04:00:36.891Z,15.18
2018-04-10T04:03:40.129Z,15.48
2018-04-10T04:06:43.452Z,16.37
2018-04-10T04:09:46.632Z,15.55
2018-04-10T04:12:49.816Z,15.70
2018-04-10T04:15:52.975Z,14.93
2018-04-10T04:19:08.660Z,17.20
2018-04-10T04:22:23.709Z,15.68
2018-04-10T04:25:27.659Z,15.75
2018-04-10T04:28:30.815Z,16.92
2018-04-10T04:31:35.129Z,14.68
2018-04-10T04:34:38.382Z,14.57
2018-04-10T04:37:41.595Z,16.55
2018-04-10T04:40:44.768Z,17.37
2018-04-10T04:43:47.975Z,15.63
2018-04-10T04:46:51.147Z,17.70
2018-04-10T04:49:54.298Z,16.25
2018-04-10T04:52:58.031Z,17.58
2018-04-10T04:56:01.940Z,17.85
2018-04-10T04:59:05.098Z,16.25
2018-04-10T05:02:09.081Z,16.87
2018-04-10T05:05:12.249Z,17.60
2018-04-10T05:08:15.433Z,15.93
2018-04-10T05:11:18.648Z,15.93
2018-04-10T05:14:21.796Z,16.92
2018-04-10T05:17:24.967Z,17.12
2018-04-10T05:20:28.160Z,17.60
2018-04-10T05:23:31.348Z,17.40
2018-04-10T05:26:35.560Z,17.65
2018-04-10T05:29:38.749Z,17.50
2018-04-10T05:32:41.923Z,17.65
2018-04-10T05:35:45.146Z,17.73
2018-04-10T05:38:48.305Z,16.40
2018-04-10T05:41:52.088Z,14.97
2018-04-10T05:44:55.250Z,15.33
2018-04-10T05:47:58.438Z,14.47
2018-04-10T05:51:01.623Z,15.07
2018-04-10T05:54:04.795Z,14.07
2018-04-10T05:57:07.955Z,14.63
2018-04-10T06:00:12.844Z,13.43
2018-04-10T06:03:16.009Z,14.43
2018-04-10T06:06:19.204Z,14.00
2018-04-10T06:09:22.383Z,15.00
2018-04-10T06:12:25.620Z,14.30
2018-04-10T06:15:28.756Z,16.00
2018-04-10T06:18:32.704Z,16.17
2018-04-10T06:21:35.974Z,16.03
2018-04-10T06:24:39.911Z,16.90
2018-04-10T06:27:43.128Z,16.80
2018-04-10T06:30:46.352Z,16.33
2018-04-10T06:33:49.520Z,16.57
2018-04-10T06:36:52.715Z,16.77
2018-04-10T06:39:55.940Z,16.90
2018-04-10T06:42:59.112Z,18.90
2018-04-10T06:46:03.135Z,19.03
2018-04-10T06:49:06.314Z,19.20
2018-04-10T06:52:09.480Z,19.67
2018-04-10T06:55:12.658Z,19.57
2018-04-10T06:58:15.886Z,19.77
2018-04-10T07:01:19.084Z,20.53
2018-04-10T07:04:22.302Z,21.77
2018-04-10T07:07:25.492Z,20.33
2018-04-10T07:10:28.674Z,22.43
2018-04-10T07:13:31.864Z,22.23
2018-04-10T07:16:35.164Z,23.53
2018-04-10T07:19:38.394Z,21.57
2018-04-10T07:22:42.352Z,21.40
2018-04-10T07:25:45.534Z,21.70
2018-04-10T07:28:48.728Z,22.23
2018-04-10T07:31:51.970Z,22.33
2018-04-10T07:34:55.165Z,22.77
2018-04-10T07:37:58.323Z,22.57
2018-04-10T07:41:01.513Z,23.63
2018-04-10T07:44:04.678Z,22.77
2018-04-10T07:47:07.851Z,22.13
2018-04-10T07:50:11.295Z,23.53
2018-04-10T07:53:14.515Z,23.37
2018-04-10T07:56:17.673Z,21.90
2018-04-10T07:59:20.848Z,24.60
2018-04-10T08:02:24.038Z,22.60
2018-04-10T08:05:27.189Z,22.80
2018-04-10T08:08:30.386Z,23.90
2018-04-10T08:11:33.582Z,23.77
2018-04-10T08:14:36.795Z,24.73
2018-04-10T08:17:39.979Z,25.07
2018-04-10T08:20:43.159Z,23.57
2018-04-10T08:23:46.555Z,24.00
2018-04-10T08:26:49.694Z,25.30
2018-04-10T08:29:52.933Z,25.20
2018-04-10T08:32:56.091Z,25.13
2018-04-10T08:35:59.267Z,24.77
2018-04-10T08:39:03.357Z,25.47
2018-04-10T08:42:06.590Z,26.27
2018-04-10T08:45:09.744Z,26.07
2018-04-10T08:48:12.938Z,25.87
2018-04-10T08:51:16.110Z,27.60
2018-04-10T08:54:19.355Z,28.13
2018-04-10T08:57:24.162Z,28.67
2018-04-10T09:00:27.343Z,30.07
2018-04-10T09:03:30.505Z,28.63
2018-04-10T09:06:33.688Z,28.30
2018-04-10T09:09:37.644Z,28.20
2018-04-10T09:12:41.528Z,29.57
2018-04-10T09:15:44.689Z,29.03
2018-04-10T09:18:48.659Z,27.50
2018-04-10T09:21:51.839Z,28.13
2018-04-10T09:24:55.761Z,28.23
2018-04-10T09:27:59.785Z,28.77
2018-04-10T09:31:03.875Z,27.37
2018-04-10T09:34:07.036Z,28.60
2018-04-10T09:37:11.016Z,28.23
2018-04-10T09:40:14.707Z,28.30
2018-04-10T09:43:17.929Z,28.10
2018-04-10T09:46:21.092Z,28.07
2018-04-10T09:49:24.261Z,27.57
2018-04-10T09:52:28.166Z,27.93
2018-04-10T09:55:32.729Z,27.50
2018-04-10T09:58:36.096Z,27.37
2018-04-10T10:01:40.017Z,27.70
2018-04-10T10:04:43.204Z,26.53
2018-04-10T10:07:46.432Z,26.80
2018-04-10T10:10:49.624Z,26.53
2018-04-10T10:13:52.800Z,26.67
2018-04-10T10:16:55.965Z,27.23
2018-04-10T10:19:59.215Z,26.83
2018-04-10T10:23:02.375Z,26.47
2018-04-10T10:26:05.558Z,26.97
2018-04-10T10:29:08.793Z,26.67
2018-04-10T10:32:11.960Z,27.73
2018-04-10T10:35:15.121Z,27.53
2018-04-10T10:38:18.299Z,27.17
2018-04-10T10:41:21.475Z,27.53
2018-04-10T10:44:25.450Z,27.33
2018-04-10T10:47:28.632Z,28.37
2018-04-10T10:50:31.860Z,27.80
2018-04-10T10:53:35.117Z,28.13
2018-04-10T10:56:38.304Z,27.60
2018-04-10T10:59:42.811Z,26.30
2018-04-10T11:02:46.017Z,26.03
2018-04-10T11:05:49.181Z,26.60
2018-04-10T11:08:52.373Z,28.13
2018-04-10T11:11:55.553Z,26.43
2018-04-10T11:14:58.751Z,24.97
2018-04-10T11:18:01.919Z,25.67
2018-04-10T11:21:05.116Z,24.90
2018-04-10T11:24:08.270Z,26.50
2018-04-10T11:27:11.529Z,25.80
2018-04-10T11:30:14.698Z,23.90
2018-04-10T11:33:18.857Z,21.90
2018-04-10T11:36:22.007Z,23.17
2018-04-10T11:39:25.220Z,20.57
2018-04-10T11:42:28.370Z,22.77
2018-04-10T11:45:32.336Z,23.57
2018-04-10T11:48:35.571Z,20.07
2018-04-10T11:51:39.522Z,21.10
2018-04-10T11:54:43.379Z,21.37
2018-04-10T11:57:46.643Z,20.87
2018-04-10T12:00:49.805Z,23.17
2018-04-10T12:03:53.779Z,23.53
2018-04-10T12:06:56.982Z,21.83
2018-04-10T12:10:00.149Z,23.37
2018-04-10T12:13:03.298Z,24.03
2018-04-10T12:16:07.300Z,22.73
2018-04-10T12:19:11.225Z,23.93
2018-04-10T12:22:15.183Z,22.33
2018-04-10T12:25:18.369Z,23.97
2018-04-10T12:28:21.558Z,22.23
2018-04-10T12:31:24.729Z,22.23
2018-04-10T12:34:28.773Z,23.07
2018-04-10T12:37:31.967Z,23.60
2018-04-10T12:40:35.217Z,23.63
2018-04-10T12:43:38.406Z,23.73
2018-04-10T12:46:41.613Z,23.77
2018-04-10T12:49:44.802Z,22.07
2018-04-10T12:52:47.988Z,23.27
2018-04-10T12:55:51.911Z,24.33
2018-04-10T12:58:55.132Z,25.00
2018-04-10T13:01:58.285Z,23.27
2018-04-10T13:05:02.723Z,23.97
2018-04-10T13:08:05.893Z,24.57
2018-04-10T13:11:09.110Z,21.93
2018-04-10T13:14:12.290Z,24.10
2018-04-10T13:17:15.506Z,21.73
2018-04-10T13:20:18.672Z,23.67
2018-04-10T13:23:21.850Z,23.93
2018-04-10T13:26:25.080Z,22.40
2018-04-10T13:29:29.124Z,22.93
2018-04-10T13:32:32.325Z,20.57
2018-04-10T13:35:35.822Z,21.90
2018-04-10T13:38:38.969Z,24.47
2018-04-10T13:41:42.916Z,25.43
2018-04-10T13:44:46.118Z,23.33
2018-04-10T13:47:49.393Z,20.93
2018-04-10T13:50:52.575Z,23.73
2018-04-10T13:53:55.811Z,21.37
2018-04-10T13:56:58.963Z,21.33
2018-04-10T14:00:02.175Z,22.07
2018-04-10T14:03:05.323Z,21.00
2018-04-10T14:06:08.513Z,19.87
2018-04-10T14:09:11.687Z,20.23
2018-04-10T14:12:14.888Z,20.87
2018-04-10T14:15:18.122Z,20.80
2018-04-10T14:18:21.318Z,22.23
2018-04-10T14:21:24.503Z,21.90
2018-04-10T14:24:27.706Z,21.93
2018-04-10T14:27:30.896Z,23.37
2018-04-10T14:30:34.846Z,22.20
2018-04-10T14:33:38.103Z,23.20
2018-04-10T14:36:42.072Z,22.93
2018-04-10T14:39:45.255Z,25.20
2018-04-10T14:42:49.282Z,23.77
2018-04-10T14:45:52.457Z,24.97
2018-04-10T14:48:55.609Z,22.80
2018-04-10T14:51:59.551Z,24.00
2018-04-10T14:55:02.729Z,23.27
2018-04-10T14:58:05.962Z,22.87
2018-04-10T15:01:09.150Z,21.57
2018-04-10T15:04:12.289Z,19.57
2018-04-10T15:07:16.232Z,15.27
2018-04-10T15:10:19.400Z,16.03
2018-04-10T15:13:23.469Z,15.33
2018-04-10T15:16:26.665Z,14.80
2018-04-10T15:19:30.672Z,15.03
2018-04-10T15:22:33.827Z,14.17
2018-04-10T15:25:37.054Z,14.27
2018-04-10T15:28:40.227Z,15.00
2018-04-10T15:31:45.093Z,13.97
2018-04-10T15:34:48.257Z,12.47
2018-04-10T15:37:51.470Z,13.30
2018-04-10T15:40:54.666Z,12.13
2018-04-10T15:43:57.865Z,14.60
2018-04-10T15:47:01.639Z,14.07
2018-04-10T15:50:05.573Z,13.87
2018-04-10T15:53:08.725Z,13.80
2018-04-10T15:56:12.696Z,13.20
2018-04-10T15:59:15.891Z,12.07
2018-04-10T16:02:19.085Z,12.30
2018-04-10T16:05:22.243Z,11.83
2018-04-10T16:08:25.407Z,11.03
2018-04-10T16:11:29.340Z,10.20
2018-04-10T16:14:33.122Z,10.33
2018-04-10T16:17:36.396Z,9.37
2018-04-10T16:20:39.574Z,8.47
2018-04-10T16:23:42.765Z,7.97
2018-04-10T16:26:45.924Z,6.13
2018-04-10T16:29:49.882Z,5.80
2018-04-10T16:32:53.077Z,4.60
2018-04-10T16:35:56.239Z,6.03
2018-04-10T16:38:59.414Z,9.30
2018-04-10T16:42:02.605Z,9.67
2018-04-10T16:45:06.574Z,11.30
2018-04-10T16:48:10.531Z,9.47
2018-04-10T16:51:14.546Z,9.77
2018-04-10T16:54:17.694Z,7.23
2018-04-10T16:57:21.083Z,3.43
2018-04-10T17:00:24.319Z,2.57
2018-04-10T17:03:27.582Z,2.20
2018-04-10T17:06:30.809Z,2.27
2018-04-10T17:09:34.747Z,2.23
2018-04-10T17:12:38.212Z,2.20
2018-04-10T17:15:42.800Z,2.57
2018-04-10T17:18:46.103Z,2.30
2018-04-10T17:21:50.566Z,2.03
2018-04-10T17:25:01.772Z,2.27
2018-04-10T17:28:11.477Z,2.10
2018-04-10T17:31:19.952Z,1.87
2018-04-10T17:34:48.146Z,2.27
2018-04-10T17:37:53.139Z,2.83
2018-04-10T17:41:06.988Z,2.17
2018-04-10T17:44:10.944Z,2.17
2018-04-10T17:47:14.565Z,2.50
2018-04-10T17:50:19.152Z,2.23
2018-04-10T17:53:22.498Z,2.13
2018-04-10T17:56:25.714Z,2.30
2018-04-10T17:59:29.073Z,2.20
2018-04-10T18:02:32.363Z,2.30
2018-04-10T18:05:35.694Z,1.93
2018-04-10T18:08:38.979Z,2.40
2018-04-10T18:11:43.058Z,2.63
2018-04-10T18:14:46.885Z,1.93
2018-04-10T18:17:50.199Z,2.60
2018-04-10T18:20:54.160Z,2.60
2018-04-10T18:23:57.526Z,2.30
2018-04-10T18:27:01.654Z,2.70
2018-04-10T18:30:04.962Z,2.53
2018-04-10T18:36:17.699Z,2.40
2018-04-10T18:39:20.899Z,2.10
2018-04-10T18:42:24.098Z,2.30
2018-04-10T18:45:28.219Z,2.77
2018-04-10T18:48:31.479Z,2.47
2018-04-10T18:51:34.733Z,2.40
2018-04-10T18:54:39.936Z,2.13
2018-04-10T18:57:43.111Z,2.37
2018-04-10T19:00:47.257Z,2.10
2018-04-10T19:03:50.471Z,2.73
2018-04-10T19:06:54.366Z,2.40
2018-04-10T19:09:57.548Z,3.10
2018-04-10T19:13:02.280Z,2.53
2018-04-10T19:16:05.534Z,2.43
2018-04-10T19:19:08.773Z,2.50
2018-04-10T19:22:11.993Z,2.50
2018-04-10T19:25:15.239Z,2.60
2018-04-10T19:28:18.444Z,2.63
2018-04-10T19:31:21.683Z,2.93
2018-04-10T19:34:24.910Z,2.40
2018-04-10T19:37:28.925Z,2.23
2018-04-10T19:40:32.904Z,2.80
2018-04-10T19:43:36.196Z,2.30
2018-04-10T19:46:39.579Z,2.43
2018-04-10T19:49:42.824Z,2.50
2018-04-10T19:52:45.986Z,3.20
2018-04-10T19:55:49.164Z,2.63
2018-04-10T19:58:52.326Z,2.50
2018-04-10T20:01:55.514Z,3.83
2018-04-10T20:04:59.456Z,2.57
2018-04-10T20:08:03.390Z,2.53
2018-04-10T20:11:06.541Z,2.50
2018-04-10T20:14:10.009Z,2.80
2018-04-10T20:17:13.186Z,3.17
2018-04-10T20:20:16.375Z,3.27
2018-04-10T20:23:20.679Z,2.97
2018-04-10T20:26:24.822Z,2.30
2018-04-10T20:29:28.142Z,2.70
2018-04-10T20:32:31.458Z,2.60
2018-04-10T20:35:34.835Z,2.53
2018-04-10T20:38:38.240Z,2.47
2018-04-10T20:41:41.508Z,3.73
2018-04-10T20:44:44.841Z,2.30
2018-04-10T20:47:48.869Z,2.77
2018-04-10T20:50:52.211Z,3.00
2018-04-10T20:53:55.509Z,2.80
2018-04-10T20:56:58.771Z,3.13
2018-04-10T21:00:02.045Z,3.27
2018-04-10T21:03:05.365Z,2.83
2018-04-10T21:09:18.164Z,3.20
2018-04-10T21:12:22.218Z,3.33
2018-04-10T21:15:25.469Z,3.23
2018-04-10T21:18:28.782Z,3.17
2018-04-10T21:21:32.139Z,3.60
2018-04-10T21:24:35.485Z,3.67
2018-04-10T21:27:38.821Z,3.70
2018-04-10T21:30:42.058Z,3.80
2018-04-10T21:33:45.321Z,3.80
2018-04-10T21:36:48.599Z,4.57
2018-04-10T21:39:51.926Z,3.77
2018-04-10T21:43:02.599Z,4.10
2018-04-10T21:46:05.993Z,4.40
2018-04-10T21:49:09.232Z,3.90
2018-04-10T21:52:12.503Z,4.17
2018-04-10T21:55:16.567Z,4.70
2018-04-10T21:58:19.781Z,4.00
2018-04-10T22:01:23.044Z,3.67
2018-04-10T22:04:26.268Z,3.93
2018-04-10T22:07:30.247Z,4.50
2018-04-10T22:10:34.398Z,3.83
2018-04-10T22:13:37.566Z,4.20
2018-04-10T22:16:40.729Z,4.00
2018-04-10T22:19:43.934Z,3.70
2018-04-10T22:22:47.895Z,4.13
2018-04-10T22:25:51.036Z,3.63
2018-04-10T22:28:54.965Z,4.33
2018-04-10T22:31:58.163Z,4.30
2018-04-10T22:35:02.069Z,4.03
2018-04-10T22:38:06.481Z,3.60
2018-04-10T22:41:09.656Z,4.63
2018-04-10T22:44:13.565Z,4.20
2018-04-10T22:47:17.556Z,4.53
2018-04-10T22:50:21.485Z,4.13
2018-04-10T22:53:25.419Z,4.00
2018-04-10T22:56:28.583Z,4.17
2018-04-10T22:59:31.757Z,3.87
2018-04-10T23:02:34.924Z,3.90
2018-04-10T23:05:38.252Z,3.93
2018-04-10T23:08:41.423Z,3.90
2018-04-10T23:11:44.603Z,3.97
2018-04-10T23:14:48.517Z,3.53
2018-04-10T23:17:51.711Z,3.77
2018-04-10T23:20:54.876Z,3.60
2018-04-10T23:23:58.815Z,3.97
2018-04-10T23:27:01.961Z,4.00
2018-04-10T23:30:05.158Z,4.20
2018-04-10T23:33:08.323Z,3.67
2018-04-10T23:36:11.500Z,3.77
2018-04-10T23:39:14.699Z,3.07
2018-04-10T23:42:17.868Z,3.50
2018-04-10T23:45:21.803Z,4.63
2018-04-10T23:48:25.741Z,6.60
2018-04-10T23:51:28.939Z,8.10
2018-04-10T23:54:32.080Z,7.23
2018-04-10T23:57:35.355Z,8.40
